createdAt,value
2022-10-18T00:00:15.990Z,19.45
2022-10-18T00:05:18.953Z,19.43
2022-10-18T00:10:21.776Z,19.42
2022-10-18T00:15:25.974Z,19.45
2022-10-18T00:20:28.694Z,19.42
2022-10-18T00:25:31.462Z,19.43
2022-10-18T00:30:35.608Z,19.42
2022-10-18T00:35:38.292Z,19.39
2022-10-18T00:40:40.995Z,19.39
2022-10-18T00:45:45.263Z,19.40
2022-10-18T00:50:48.684Z,19.39
2022-10-18T00:55:51.961Z,19.38
2022-10-18T01:00:56.116Z,19.38
2022-10-18T01:05:58.944Z,19.36
2022-10-18T01:11:14.526Z,19.37
2022-10-18T01:16:23.129Z,19.35
2022-10-18T01:21:37.097Z,19.36
2022-10-18T01:26:54.026Z,19.33
2022-10-18T01:32:00.111Z,19.35
2022-10-18T01:37:04.520Z,19.33
2022-10-18T01:42:08.922Z,19.31
2022-10-18T01:47:14.604Z,19.31
2022-10-18T01:52:17.736Z,19.31
2022-10-18T01:57:25.529Z,19.28
2022-10-18T02:02:40.246Z,19.28
2022-10-18T02:07:55.327Z,19.30
2022-10-18T02:13:09.524Z,19.25
2022-10-18T02:18:16.407Z,19.24
2022-10-18T02:23:22.614Z,19.26
2022-10-18T02:28:25.547Z,19.25
2022-10-18T02:33:34.276Z,19.23
2022-10-18T02:38:37.659Z,19.25
2022-10-18T02:43:40.344Z,19.24
2022-10-18T02:48:44.414Z,19.23
2022-10-18T02:53:47.127Z,19.22
2022-10-18T02:58:49.810Z,19.22
2022-10-18T03:03:53.855Z,19.19
2022-10-18T03:08:56.620Z,19.18
2022-10-18T03:13:59.409Z,19.18
2022-10-18T03:19:03.533Z,19.16
2022-10-18T03:24:07.393Z,19.19
2022-10-18T03:29:10.439Z,19.17
2022-10-18T03:34:15.695Z,19.18
2022-10-18T03:39:18.395Z,19.18
2022-10-18T03:44:21.169Z,19.17
2022-10-18T03:49:25.299Z,19.17
2022-10-18T03:54:27.986Z,19.16
2022-10-18T03:59:30.725Z,19.18
2022-10-18T04:04:34.821Z,19.17
2022-10-18T04:09:37.598Z,19.16
2022-10-18T04:14:40.389Z,19.15
2022-10-18T04:19:44.488Z,19.15
2022-10-18T04:24:47.210Z,19.15
2022-10-18T04:29:50.016Z,19.15
2022-10-18T04:34:54.140Z,19.14
2022-10-18T04:39:56.874Z,19.16
2022-10-18T04:44:59.689Z,19.15
2022-10-18T04:50:03.802Z,19.15
2022-10-18T04:55:07.488Z,19.11
2022-10-18T05:00:10.881Z,19.13
2022-10-18T05:05:14.965Z,19.12
2022-10-18T05:10:17.791Z,19.10
2022-10-18T05:15:20.543Z,19.11
2022-10-18T05:20:24.716Z,19.10
2022-10-18T05:25:27.460Z,19.10
2022-10-18T05:30:30.189Z,19.10
2022-10-18T05:35:34.604Z,19.11
2022-10-18T05:40:39.295Z,19.11
2022-10-18T05:45:48.468Z,19.09
2022-10-18T05:50:52.540Z,19.08
2022-10-18T05:55:55.295Z,19.07
2022-10-18T06:01:00.764Z,19.09
2022-10-18T06:06:07.101Z,19.10
2022-10-18T06:11:11.011Z,19.08
2022-10-18T06:16:14.972Z,19.08
2022-10-18T06:21:19.395Z,19.05
2022-10-18T06:26:22.625Z,19.07
2022-10-18T06:31:25.340Z,19.07
2022-10-18T06:36:29.716Z,19.06
2022-10-18T06:41:32.421Z,19.09
2022-10-18T06:46:53.498Z,19.06
2022-10-18T06:51:57.550Z,19.08
2022-10-18T06:57:02.548Z,19.05
2022-10-18T07:02:05.371Z,19.07
2022-10-18T07:07:09.480Z,19.07
2022-10-18T07:12:12.179Z,19.06
2022-10-18T07:17:15.063Z,19.08
2022-10-18T07:22:19.149Z,19.07
2022-10-18T07:27:21.820Z,19.09
2022-10-18T07:32:24.614Z,19.10
2022-10-18T07:37:30.203Z,19.09
2022-10-18T07:42:33.075Z,19.08
2022-10-18T07:47:35.978Z,19.10
2022-10-18T07:52:40.500Z,19.08
2022-10-18T07:57:43.183Z,19.11
2022-10-18T08:02:45.889Z,19.12
2022-10-18T08:07:50.018Z,19.13
2022-10-18T08:12:52.883Z,19.14
2022-10-18T08:17:55.563Z,19.19
2022-10-18T08:23:00.614Z,19.15
2022-10-18T08:28:03.511Z,19.18
2022-10-18T08:33:06.331Z,19.20
2022-10-18T08:38:16.472Z,19.22
2022-10-18T08:43:28.408Z,19.19
2022-10-18T08:48:36.738Z,19.23
2022-10-18T08:53:49.088Z,19.21
2022-10-18T08:58:52.082Z,19.20
2022-10-18T09:04:22.098Z,19.21
2022-10-18T09:09:34.582Z,19.19
2022-10-18T09:14:54.336Z,19.18
2022-10-18T09:20:07.314Z,19.17
2022-10-18T09:25:18.546Z,19.18
2022-10-18T09:30:30.387Z,19.19
2022-10-18T09:35:40.896Z,19.20
2022-10-18T09:40:52.251Z,19.21
2022-10-18T09:45:55.650Z,19.23
2022-10-18T09:51:00.145Z,19.33
2022-10-18T09:56:07.160Z,19.34
2022-10-18T10:01:11.599Z,19.41
2022-10-18T10:06:19.140Z,19.46
2022-10-18T10:11:35.637Z,19.50
2022-10-18T10:16:48.966Z,19.51
2022-10-18T10:21:53.344Z,19.52
2022-10-18T10:27:06.127Z,19.50
2022-10-18T10:32:13.774Z,19.49
2022-10-18T10:37:29.105Z,19.54
2022-10-18T10:42:34.486Z,19.58
2022-10-18T10:47:37.948Z,19.63
2022-10-18T10:52:41.448Z,19.69
2022-10-18T10:57:47.481Z,19.71
2022-10-18T11:02:59.418Z,19.73
2022-10-18T11:08:11.078Z,19.77
2022-10-18T11:13:25.132Z,19.81
2022-10-18T11:18:31.209Z,19.85
2022-10-18T11:23:34.809Z,19.88
2022-10-18T11:28:50.139Z,19.89
2022-10-18T11:34:09.193Z,19.90
2022-10-18T11:39:19.347Z,19.91
2022-10-18T11:44:28.399Z,19.86
2022-10-18T11:50:00.840Z,19.88
2022-10-18T11:55:13.726Z,19.91
2022-10-18T12:00:40.294Z,19.95
2022-10-18T12:05:44.939Z,20.01
2022-10-18T12:11:06.640Z,19.99
2022-10-18T12:16:11.910Z,20.03
2022-10-18T12:21:14.700Z,20.05
2022-10-18T12:26:18.284Z,20.05
2022-10-18T12:31:26.119Z,20.07
2022-10-18T12:36:48.860Z,20.05
2022-10-18T12:41:54.306Z,20.02
2022-10-18T12:46:59.478Z,20.02
2022-10-18T12:52:04.699Z,20.01
2022-10-18T12:57:22.918Z,20.04
2022-10-18T13:02:29.590Z,20.05
2022-10-18T13:07:42.994Z,20.06
2022-10-18T13:12:59.497Z,20.05
2022-10-18T13:18:09.735Z,20.06
2022-10-18T13:23:26.383Z,20.06
2022-10-18T13:28:33.832Z,20.06
2022-10-18T13:33:39.601Z,20.07
2022-10-18T13:38:48.410Z,20.10
2022-10-18T13:44:12.220Z,20.13
2022-10-18T13:49:28.972Z,20.12
2022-10-18T13:54:44.378Z,20.11
2022-10-18T14:00:05.508Z,20.11
2022-10-18T14:05:26.767Z,20.08
2022-10-18T14:10:50.133Z,20.09
2022-10-18T14:16:05.982Z,20.04
2022-10-18T14:21:16.837Z,20.03
2022-10-18T14:26:22.771Z,20.01
2022-10-18T14:31:25.528Z,20.02
2022-10-18T14:36:35.471Z,20.06
2022-10-18T14:41:41.134Z,20.07
2022-10-18T14:46:44.833Z,20.07
2022-10-18T14:51:52.030Z,20.08
2022-10-18T14:56:54.873Z,20.07
2022-10-18T15:01:59.320Z,20.04
2022-10-18T15:07:05.613Z,19.99
2022-10-18T15:12:08.559Z,19.93
2022-10-18T15:17:15.370Z,19.87
2022-10-18T15:22:32.456Z,19.84
2022-10-18T15:27:37.725Z,19.81
2022-10-18T15:32:48.765Z,19.78
2022-10-18T15:37:53.056Z,19.75
2022-10-18T15:42:57.042Z,19.71
2022-10-18T15:48:01.531Z,19.66
2022-10-18T15:53:25.373Z,19.63
2022-10-18T15:58:31.909Z,19.60
2022-10-18T16:03:35.854Z,19.57
2022-10-18T16:08:41.750Z,19.55
2022-10-18T16:13:45.086Z,19.50
2022-10-18T16:18:48.025Z,19.43
2022-10-18T16:23:52.081Z,19.39
2022-10-18T16:28:55.335Z,19.36
2022-10-18T16:33:58.743Z,19.28
2022-10-18T16:39:07.551Z,19.27
2022-10-18T16:44:10.215Z,19.22
2022-10-18T16:54:24.569Z,19.14
2022-10-18T16:59:28.766Z,19.10
2022-10-18T17:04:31.420Z,19.08
2022-10-18T17:09:36.875Z,19.07
2022-10-18T17:14:39.668Z,19.03
2022-10-18T17:19:42.340Z,18.98
2022-10-18T17:24:46.373Z,18.99
2022-10-18T17:29:49.070Z,19.04
2022-10-18T17:34:51.776Z,19.08
2022-10-18T17:39:55.869Z,19.04
2022-10-18T17:44:58.620Z,19.01
2022-10-18T17:50:01.307Z,18.95
2022-10-18T17:55:05.894Z,18.93
2022-10-18T18:00:11.565Z,18.90
2022-10-18T18:05:17.407Z,18.85
2022-10-18T18:10:21.495Z,18.85
2022-10-18T18:15:24.214Z,18.81
2022-10-18T18:20:27.217Z,18.81
2022-10-18T18:25:31.293Z,18.76
2022-10-18T18:30:33.982Z,18.73
2022-10-18T18:35:36.629Z,18.71
2022-10-18T18:40:40.678Z,18.65
2022-10-18T18:45:51.343Z,18.66
2022-10-18T18:50:54.136Z,18.64
2022-10-18T18:56:03.811Z,18.59
2022-10-18T19:01:08.740Z,18.56
2022-10-18T19:06:14.210Z,18.55
2022-10-18T19:11:20.808Z,18.56
2022-10-18T19:16:25.706Z,18.50
2022-10-18T19:21:31.007Z,18.49
2022-10-18T19:26:37.780Z,18.49
2022-10-18T19:31:40.855Z,18.49
2022-10-18T19:36:44.755Z,18.49
2022-10-18T19:41:49.477Z,18.46
2022-10-18T19:46:52.308Z,18.45
2022-10-18T19:51:55.016Z,18.42
2022-10-18T19:56:59.120Z,18.40
2022-10-18T20:02:01.894Z,18.36
2022-10-18T20:07:04.634Z,18.36
2022-10-18T20:12:08.732Z,18.33
2022-10-18T20:17:12.927Z,18.30
2022-10-18T20:22:15.743Z,18.27
2022-10-18T20:27:19.727Z,18.27
2022-10-18T20:32:22.397Z,18.25
2022-10-18T20:37:25.085Z,18.22
2022-10-18T20:42:29.130Z,18.21
2022-10-18T20:47:32.015Z,18.19
2022-10-18T20:52:35.027Z,18.17
2022-10-18T20:57:39.282Z,18.13
2022-10-18T21:02:42.082Z,18.11
2022-10-18T21:07:44.753Z,18.10
2022-10-18T21:12:49.557Z,18.09
2022-10-18T21:17:52.704Z,18.06
2022-10-18T21:22:57.337Z,18.06
2022-10-18T21:28:01.458Z,18.01
2022-10-18T21:33:04.484Z,18.00
2022-10-18T21:38:07.340Z,17.96
2022-10-18T21:43:11.530Z,17.95
2022-10-18T21:48:14.272Z,17.95
2022-10-18T21:53:17.113Z,17.92
2022-10-18T21:58:21.470Z,17.89
2022-10-18T22:03:24.198Z,17.88
2022-10-18T22:08:26.972Z,17.85
2022-10-18T22:13:31.114Z,17.85
2022-10-18T22:18:34.727Z,17.80
2022-10-18T22:23:39.177Z,17.79
2022-10-18T22:28:44.506Z,17.78
2022-10-18T22:33:48.055Z,17.75
2022-10-18T22:38:51.074Z,17.72
2022-10-18T22:43:57.344Z,17.68
2022-10-18T22:49:02.407Z,17.66
2022-10-18T22:54:05.226Z,17.64
2022-10-18T22:59:09.512Z,17.64
2022-10-18T23:04:12.188Z,17.62
2022-10-18T23:09:14.939Z,17.60
2022-10-18T23:14:19.103Z,17.58
2022-10-18T23:19:21.794Z,17.59
2022-10-18T23:24:24.476Z,17.54
2022-10-18T23:29:28.761Z,17.53
2022-10-18T23:34:31.518Z,17.51
2022-10-18T23:39:34.266Z,17.49
2022-10-18T23:44:38.330Z,17.45
2022-10-18T23:49:41.068Z,17.44
2022-10-18T23:59:48.699Z,17.40
